Portada
METAR-TAF:

METAR-TAF

Aeroports :

Txungking, Xina

latitud: 29-31N, longitud: 106-29E, altitud: 351 m

Observació

L'informe es va fer fa 1 hora i 14 minuts, a les 00:00 UTC
Vent calma
Temperatura 13°C
Humitat 82%
Pressió 1028 hPa
Visibilitat 10 km o més
sense núvols per sota de 1500 mi sense presència de cumulonimbus.

METAR: ZUCK 140000Z 00000MPS CAVOK 13/10 Q1028 NOSIG

Hora: 09:14 (01:14 UTC)

Pronòstic

L'informe es va fer fa 6 hores i 9 minuts, a les 19:05 UTC
Pronòstic vàlid del 14 a les 00 UTC al 14 a les 24 UTC
Vent 6 kt del Nord/Nord-Est
Visibilitat: 5000 m
Núvols disperses a una alçada de 4000 ft
boirina

TAF: ZUCK 131905Z 1400/1424 03003MPS 5000 BR SCT040 TX19/1408Z TN12/1422Z

Observacions i pronòstics meteorològics de més de 4000 aeroports (METAR i TAF).

Les estacions disponibles són els punts grocs i vermells al mapa.

Posi el ratolí al punt desitjat per veure el nom de l'estació.

Feu clic per veure les observacions i els pronòstics meteorològics.

Per canviar el mapa: feu clic els botons verds amb una creu de color negre per apropar; al botó verd amb un guió per allunyar la imatge; o en les fletxes verdes per a mapes adjacents.


METAR-TAF: